sensor_id;sensor_type;location;lat;lon;timestamp;pressure;altitude;pressure_sealevel;temperature;humidity
37848;BME280;23688;33.130;-117.188;2024-02-26T00:01:46;99632.00;;;17.17;96.62
37848;BME280;23688;33.130;-117.188;2024-02-26T00:04:12;99629.91;;;17.47;96.28
37848;BME280;23688;33.130;-117.188;2024-02-26T00:06:39;99616.81;;;17.50;96.07
37848;BME280;23688;33.130;-117.188;2024-02-26T00:09:08;99616.84;;;17.52;95.62
37848;BME280;23688;33.130;-117.188;2024-02-26T00:11:38;99616.78;;;17.47;95.96
37848;BME280;23688;33.130;-117.188;2024-02-26T00:14:04;99629.94;;;17.50;95.71
37848;BME280;23688;33.130;-117.188;2024-02-26T00:16:31;99638.53;;;17.39;96.99
37848;BME280;23688;33.130;-117.188;2024-02-26T00:19:00;99620.81;;;17.25;97.32
37848;BME280;23688;33.130;-117.188;2024-02-26T00:21:26;99632.78;;;17.09;98.10
37848;BME280;23688;33.130;-117.188;2024-02-26T00:23:55;99631.75;;;17.01;98.66
37848;BME280;23688;33.130;-117.188;2024-02-26T00:26:21;99636.66;;;16.81;100.00
37848;BME280;23688;33.130;-117.188;2024-02-26T00:28:48;99616.94;;;17.03;100.00
37848;BME280;23688;33.130;-117.188;2024-02-26T00:31:14;99615.56;;;17.25;100.00
37848;BME280;23688;33.130;-117.188;2024-02-26T00:33:40;99613.97;;;17.35;100.00
37848;BME280;23688;33.130;-117.188;2024-02-26T00:36:07;99608.81;;;17.41;100.00
37848;BME280;23688;33.130;-117.188;2024-02-26T00:38:33;99609.69;;;17.43;100.00
37848;BME280;23688;33.130;-117.188;2024-02-26T00:41:00;99615.75;;;17.38;100.00
37848;BME280;23688;33.130;-117.188;2024-02-26T00:43:26;99613.97;;;17.35;100.00
37848;BME280;23688;33.130;-117.188;2024-02-26T00:45:52;99609.47;;;17.28;100.00
37848;BME280;23688;33.130;-117.188;2024-02-26T00:48:19;99606.84;;;17.28;100.00
37848;BME280;23688;33.130;-117.188;2024-02-26T00:50:45;99597.22;;;17.27;100.00
37848;BME280;23688;33.130;-117.188;2024-02-26T00:53:11;99587.53;;;17.23;100.00
37848;BME280;23688;33.130;-117.188;2024-02-26T00:55:38;99622.50;;;17.22;100.00
37848;BME280;23688;33.130;-117.188;2024-02-26T00:58:04;99619.75;;;17.16;100.00
37848;BME280;23688;33.130;-117.188;2024-02-26T01:00:30;99601.25;;;17.06;100.00
37848;BME280;23688;33.130;-117.188;2024-02-26T01:02:57;99616.34;;;17.21;100.00
37848;BME280;23688;33.130;-117.188;2024-02-26T01:05:25;99629.41;;;17.18;100.00
37848;BME280;23688;33.130;-117.188;2024-02-26T01:07:52;99633.63;;;17.08;100.00
37848;BME280;23688;33.130;-117.188;2024-02-26T01:10:18;99642.38;;;16.62;100.00
37848;BME280;23688;33.130;-117.188;2024-02-26T01:12:45;99638.75;;;16.13;100.00
37848;BME280;23688;33.130;-117.188;2024-02-26T01:15:11;99631.56;;;16.04;100.00
37848;BME280;23688;33.130;-117.188;2024-02-26T01:17:37;99637.06;;;16.16;100.00
37848;BME280;23688;33.130;-117.188;2024-02-26T01:20:05;99624.03;;;16.18;100.00
37848;BME280;23688;33.130;-117.188;2024-02-26T01:22:31;99626.06;;;15.92;100.00
37848;BME280;23688;33.130;-117.188;2024-02-26T01:24:57;99621.41;;;16.18;100.00
37848;BME280;23688;33.130;-117.188;2024-02-26T01:27:24;99618.16;;;16.30;100.00
37848;BME280;23688;33.130;-117.188;2024-02-26T01:29:53;99617.22;;;16.27;100.00
37848;BME280;23688;33.130;-117.188;2024-02-26T01:32:19;99609.91;;;16.11;100.00
37848;BME280;23688;33.130;-117.188;2024-02-26T01:34:45;99614.47;;;16.21;100.00
37848;BME280;23688;33.130;-117.188;2024-02-26T01:37:12;99607.28;;;16.11;100.00
37848;BME280;23688;33.130;-117.188;2024-02-26T01:39:38;99617.75;;;16.11;100.00
37848;BME280;23688;33.130;-117.188;2024-02-26T01:42:06;99612.47;;;16.08;100.00
37848;BME280;23688;33.130;-117.188;2024-02-26T01:44:32;99620.72;;;15.86;100.00
37848;BME280;23688;33.130;-117.188;2024-02-26T01:46:59;99617.75;;;15.70;100.00
37848;BME280;23688;33.130;-117.188;2024-02-26T01:49:28;99612.66;;;15.76;100.00
37848;BME280;23688;33.130;-117.188;2024-02-26T01:51:54;99609.53;;;15.93;100.00
37848;BME280;23688;33.130;-117.188;2024-02-26T01:54:21;99605.22;;;15.95;100.00
37848;BME280;23688;33.130;-117.188;2024-02-26T01:56:48;99596.53;;;15.97;100.00
37848;BME280;23688;33.130;-117.188;2024-02-26T01:59:17;99581.88;;;16.05;100.00
37848;BME280;23688;33.130;-117.188;2024-02-26T02:01:45;99587.22;;;16.12;100.00
37848;BME280;23688;33.130;-117.188;2024-02-26T02:04:14;99589.00;;;16.13;100.00
37848;BME280;23688;33.130;-117.188;2024-02-26T02:06:42;99598.69;;;16.18;100.00
37848;BME280;23688;33.130;-117.188;2024-02-26T02:09:11;99601.31;;;16.18;100.00
37848;BME280;23688;33.130;-117.188;2024-02-26T02:11:38;99609.06;;;16.12;100.00
37848;BME280;23688;33.130;-117.188;2024-02-26T02:14:04;99603.72;;;16.08;100.00
37848;BME280;23688;33.130;-117.188;2024-02-26T02:16:31;99598.34;;;16.01;100.00
37848;BME280;23688;33.130;-117.188;2024-02-26T02:18:58;99590.25;;;15.89;100.00
37848;BME280;23688;33.130;-117.188;2024-02-26T02:21:25;99607.94;;;15.61;100.00
37848;BME280;23688;33.130;-117.188;2024-02-26T02:23:51;99602.63;;;15.58;100.00
37848;BME280;23688;33.130;-117.188;2024-02-26T02:26:18;99601.78;;;15.59;100.00
37848;BME280;23688;33.130;-117.188;2024-02-26T02:28:45;99597.56;;;15.66;100.00
37848;BME280;23688;33.130;-117.188;2024-02-26T02:31:12;99599.50;;;15.73;100.00
37848;BME280;23688;33.130;-117.188;2024-02-26T02:33:39;99598.66;;;15.74;100.00
37848;BME280;23688;33.130;-117.188;2024-02-26T02:36:05;99604.69;;;15.72;100.00
37848;BME280;23688;33.130;-117.188;2024-02-26T02:38:36;99598.41;;;15.65;100.00
37848;BME280;23688;33.130;-117.188;2024-02-26T02:41:03;99594.03;;;15.64;100.00
37848;BME280;23688;33.130;-117.188;2024-02-26T02:43:29;99594.06;;;15.66;100.00
37848;BME280;23688;33.130;-117.188;2024-02-26T02:45:56;99605.44;;;15.68;100.00
37848;BME280;23688;33.130;-117.188;2024-02-26T02:48:22;99600.00;;;15.58;100.00
37848;BME280;23688;33.130;-117.188;2024-02-26T02:50:48;99600.38;;;15.37;100.00
37848;BME280;23688;33.130;-117.188;2024-02-26T02:53:14;99613.81;;;15.16;100.00
37848;BME280;23688;33.130;-117.188;2024-02-26T02:55:42;99605.84;;;15.10;100.00
37848;BME280;23688;33.130;-117.188;2024-02-26T02:58:08;99594.63;;;15.14;100.00
37848;BME280;23688;33.130;-117.188;2024-02-26T03:00:34;99593.88;;;15.20;100.00
37848;BME280;23688;33.130;-117.188;2024-02-26T03:03:01;99594.63;;;15.16;100.00
37848;BME280;23688;33.130;-117.188;2024-02-26T03:05:27;99589.91;;;15.01;100.00
37848;BME280;23688;33.130;-117.188;2024-02-26T03:07:53;99608.34;;;15.06;100.00
37848;BME280;23688;33.130;-117.188;2024-02-26T03:10:20;99581.56;;;14.81;100.00
37848;BME280;23688;33.130;-117.188;2024-02-26T03:12:46;99608.78;;;14.89;100.00
37848;BME280;23688;33.130;-117.188;2024-02-26T03:15:12;99613.69;;;14.77;100.00
37848;BME280;23688;33.130;-117.188;2024-02-26T03:17:39;99631.16;;;14.46;100.00
37848;BME280;23688;33.130;-117.188;2024-02-26T03:20:06;99638.97;;;14.46;100.00
37848;BME280;23688;33.130;-117.188;2024-02-26T03:22:34;99635.97;;;14.63;100.00
37848;BME280;23688;33.130;-117.188;2024-02-26T03:25:03;99630.31;;;14.79;100.00
37848;BME280;23688;33.130;-117.188;2024-02-26T03:27:29;99631.75;;;14.68;100.00
37848;BME280;23688;33.130;-117.188;2024-02-26T03:29:55;99642.44;;;14.77;100.00
37848;BME280;23688;33.130;-117.188;2024-02-26T03:32:22;99660.06;;;14.84;100.00
37848;BME280;23688;33.130;-117.188;2024-02-26T03:34:50;99672.19;;;14.82;100.00
37848;BME280;23688;33.130;-117.188;2024-02-26T03:37:20;99678.56;;;14.60;100.00
37848;BME280;23688;33.130;-117.188;2024-02-26T03:39:46;99676.81;;;14.30;100.00
37848;BME280;23688;33.130;-117.188;2024-02-26T03:42:12;99701.09;;;13.98;100.00
37848;BME280;23688;33.130;-117.188;2024-02-26T03:44:39;99705.41;;;13.68;100.00
37848;BME280;23688;33.130;-117.188;2024-02-26T03:47:05;99682.72;;;13.67;100.00
37848;BME280;23688;33.130;-117.188;2024-02-26T03:49:31;99685.66;;;13.49;100.00
37848;BME280;23688;33.130;-117.188;2024-02-26T03:51:58;99701.28;;;13.49;100.00
37848;BME280;23688;33.130;-117.188;2024-02-26T03:54:24;99710.63;;;13.43;100.00
37848;BME280;23688;33.130;-117.188;2024-02-26T03:56:53;99702.63;;;13.37;100.00
37848;BME280;23688;33.130;-117.188;2024-02-26T03:59:20;99702.03;;;13.21;100.00
37848;BME280;23688;33.130;-117.188;2024-02-26T04:01:47;99703.75;;;13.19;100.00
37848;BME280;23688;33.130;-117.188;2024-02-26T04:04:14;99713.31;;;13.20;100.00
37848;BME280;23688;33.130;-117.188;2024-02-26T04:06:44;99695.63;;;13.36;100.00
37848;BME280;23688;33.130;-117.188;2024-02-26T04:09:13;99699.00;;;13.59;100.00
37848;BME280;23688;33.130;-117.188;2024-02-26T04:11:39;99695.13;;;13.75;100.00
37848;BME280;23688;33.130;-117.188;2024-02-26T04:14:06;99689.50;;;13.89;100.00
37848;BME280;23688;33.130;-117.188;2024-02-26T04:16:34;99720.72;;;14.13;100.00
37848;BME280;23688;33.130;-117.188;2024-02-26T04:19:04;99721.00;;;14.23;100.00
37848;BME280;23688;33.130;-117.188;2024-02-26T04:21:30;99732.09;;;14.16;100.00
37848;BME280;23688;33.130;-117.188;2024-02-26T04:23:57;99716.91;;;14.02;100.00
37848;BME280;23688;33.130;-117.188;2024-02-26T04:26:26;99723.59;;;14.23;100.00
37848;BME280;23688;33.130;-117.188;2024-02-26T04:28:53;99733.41;;;14.30;100.00
37848;BME280;23688;33.130;-117.188;2024-02-26T04:31:19;99722.31;;;14.39;100.00
37848;BME280;23688;33.130;-117.188;2024-02-26T04:33:45;99720.84;;;14.47;100.00
37848;BME280;23688;33.130;-117.188;2024-02-26T04:36:15;99724.47;;;14.52;100.00
37848;BME280;23688;33.130;-117.188;2024-02-26T04:38:43;99715.69;;;14.50;100.00
37848;BME280;23688;33.130;-117.188;2024-02-26T04:41:09;99725.44;;;14.54;100.00
37848;BME280;23688;33.130;-117.188;2024-02-26T04:43:36;99714.91;;;14.52;100.00
37848;BME280;23688;33.130;-117.188;2024-02-26T04:46:09;99720.34;;;14.59;100.00
37848;BME280;23688;33.130;-117.188;2024-02-26T04:48:36;99725.66;;;14.62;100.00
37848;BME280;23688;33.130;-117.188;2024-02-26T04:51:03;99728.31;;;14.63;100.00
37848;BME280;23688;33.130;-117.188;2024-02-26T04:53:29;99716.06;;;14.61;100.00
37848;BME280;23688;33.130;-117.188;2024-02-26T04:55:57;99720.34;;;14.59;100.00
37848;BME280;23688;33.130;-117.188;2024-02-26T04:58:23;99707.91;;;14.51;100.00
37848;BME280;23688;33.130;-117.188;2024-02-26T05:00:57;99720.13;;;14.52;100.00
37848;BME280;23688;33.130;-117.188;2024-02-26T05:03:24;99734.91;;;14.52;100.00
37848;BME280;23688;33.130;-117.188;2024-02-26T05:05:50;99726.19;;;14.51;100.00
37848;BME280;23688;33.130;-117.188;2024-02-26T05:08:18;99724.19;;;14.43;100.00
37848;BME280;23688;33.130;-117.188;2024-02-26T05:10:45;99742.31;;;14.37;100.00
37848;BME280;23688;33.130;-117.188;2024-02-26T05:13:11;99746.47;;;14.30;100.00
37848;BME280;23688;33.130;-117.188;2024-02-26T05:15:43;99746.16;;;14.19;100.00
37848;BME280;23688;33.130;-117.188;2024-02-26T05:18:12;99760.09;;;14.21;100.00
37848;BME280;23688;33.130;-117.188;2024-02-26T05:20:38;99755.50;;;14.12;100.00
37848;BME280;23688;33.130;-117.188;2024-02-26T05:23:05;99765.88;;;14.11;100.00
37848;BME280;23688;33.130;-117.188;2024-02-26T05:25:31;99753.38;;;14.01;100.00
37848;BME280;23688;33.130;-117.188;2024-02-26T05:27:57;99771.09;;;14.11;100.00
37848;BME280;23688;33.130;-117.188;2024-02-26T05:30:24;99771.09;;;14.09;100.00
37848;BME280;23688;33.130;-117.188;2024-02-26T05:32:52;99779.78;;;14.10;100.00
37848;BME280;23688;33.130;-117.188;2024-02-26T05:35:19;99788.50;;;14.10;100.00
37848;BME280;23688;33.130;-117.188;2024-02-26T05:37:45;99773.47;;;14.03;100.00
37848;BME280;23688;33.130;-117.188;2024-02-26T05:40:12;99783.34;;;14.12;100.00
37848;BME280;23688;33.130;-117.188;2024-02-26T05:42:39;99780.84;;;14.17;100.00
37848;BME280;23688;33.130;-117.188;2024-02-26T05:45:06;99768.25;;;14.03;100.00
37848;BME280;23688;33.130;-117.188;2024-02-26T05:47:33;99779.16;;;14.17;100.00
37848;BME280;23688;33.130;-117.188;2024-02-26T05:49:59;99774.06;;;14.22;100.00
37848;BME280;23688;33.130;-117.188;2024-02-26T05:52:27;99780.13;;;14.21;100.00
37848;BME280;23688;33.130;-117.188;2024-02-26T05:54:57;99768.94;;;14.25;100.00
37848;BME280;23688;33.130;-117.188;2024-02-26T05:57:24;99761.97;;;14.25;100.00
37848;BME280;23688;33.130;-117.188;2024-02-26T05:59:50;99776.91;;;14.29;100.00
37848;BME280;23688;33.130;-117.188;2024-02-26T06:02:19;99775.91;;;14.26;100.00
37848;BME280;23688;33.130;-117.188;2024-02-26T06:04:58;99787.16;;;14.23;100.00
37848;BME280;23688;33.130;-117.188;2024-02-26T06:07:25;99794.19;;;14.24;100.00
37848;BME280;23688;33.130;-117.188;2024-02-26T06:09:57;99780.31;;;14.27;100.00
37848;BME280;23688;33.130;-117.188;2024-02-26T06:12:23;99798.78;;;14.33;100.00
37848;BME280;23688;33.130;-117.188;2024-02-26T06:14:49;99804.09;;;14.36;100.00
37848;BME280;23688;33.130;-117.188;2024-02-26T06:17:16;99791.00;;;14.34;100.00
37848;BME280;23688;33.130;-117.188;2024-02-26T06:19:42;99783.31;;;14.39;100.00
37848;BME280;23688;33.130;-117.188;2024-02-26T06:22:09;99801.84;;;14.48;100.00
37848;BME280;23688;33.130;-117.188;2024-02-26T06:24:35;99801.13;;;14.52;100.00
37848;BME280;23688;33.130;-117.188;2024-02-26T06:27:01;99769.59;;;14.46;100.00
37848;BME280;23688;33.130;-117.188;2024-02-26T06:29:28;99775.16;;;14.57;100.00
37848;BME280;23688;33.130;-117.188;2024-02-26T06:31:54;99776.97;;;14.60;100.00
37848;BME280;23688;33.130;-117.188;2024-02-26T06:34:21;99777.84;;;14.60;100.00
37848;BME280;23688;33.130;-117.188;2024-02-26T06:36:47;99757.44;;;14.48;100.00
37848;BME280;23688;33.130;-117.188;2024-02-26T06:39:14;99759.19;;;14.48;100.00
37848;BME280;23688;33.130;-117.188;2024-02-26T06:41:41;99752.34;;;14.53;100.00
37848;BME280;23688;33.130;-117.188;2024-02-26T06:44:11;99754.06;;;14.51;100.00
37848;BME280;23688;33.130;-117.188;2024-02-26T06:46:37;99751.34;;;14.48;100.00
37848;BME280;23688;33.130;-117.188;2024-02-26T06:49:04;99747.94;;;14.50;100.00
37848;BME280;23688;33.130;-117.188;2024-02-26T06:51:30;99769.06;;;14.57;100.00
37848;BME280;23688;33.130;-117.188;2024-02-26T06:53:57;99764.78;;;14.59;100.00
37848;BME280;23688;33.130;-117.188;2024-02-26T06:56:24;99754.97;;;14.53;100.00
37848;BME280;23688;33.130;-117.188;2024-02-26T06:58:50;99747.84;;;14.47;100.00
37848;BME280;23688;33.130;-117.188;2024-02-26T07:01:16;99753.31;;;14.53;100.00
37848;BME280;23688;33.130;-117.188;2024-02-26T07:03:43;99750.53;;;14.50;100.00
37848;BME280;23688;33.130;-117.188;2024-02-26T07:06:09;99757.50;;;14.50;100.00
37848;BME280;23688;33.130;-117.188;2024-02-26T07:08:35;99740.16;;;14.52;100.00
37848;BME280;23688;33.130;-117.188;2024-02-26T07:11:02;99724.59;;;14.55;100.00
37848;BME280;23688;33.130;-117.188;2024-02-26T07:13:29;99748.97;;;14.55;100.00
37848;BME280;23688;33.130;-117.188;2024-02-26T07:15:56;99743.72;;;14.54;100.00
37848;BME280;23688;33.130;-117.188;2024-02-26T07:18:22;99750.78;;;14.57;100.00
37848;BME280;23688;33.130;-117.188;2024-02-26T07:20:48;99748.16;;;14.57;100.00
37848;BME280;23688;33.130;-117.188;2024-02-26T07:23:15;99746.25;;;14.52;100.00
37848;BME280;23688;33.130;-117.188;2024-02-26T07:25:41;99757.56;;;14.51;100.00
37848;BME280;23688;33.130;-117.188;2024-02-26T07:28:08;99737.53;;;14.52;100.00
37848;BME280;23688;33.130;-117.188;2024-02-26T07:30:34;99740.25;;;14.55;100.00
37848;BME280;23688;33.130;-117.188;2024-02-26T07:33:01;99739.44;;;14.56;100.00
37848;BME280;23688;33.130;-117.188;2024-02-26T07:35:27;99713.59;;;14.37;100.00
37848;BME280;23688;33.130;-117.188;2024-02-26T07:37:54;99740.09;;;14.50;100.00
37848;BME280;23688;33.130;-117.188;2024-02-26T07:40:20;99734.63;;;14.43;100.00
37848;BME280;23688;33.130;-117.188;2024-02-26T07:42:46;99740.75;;;14.43;100.00
37848;BME280;23688;33.130;-117.188;2024-02-26T07:45:14;99742.47;;;14.43;100.00
37848;BME280;23688;33.130;-117.188;2024-02-26T07:47:41;99748.34;;;14.35;100.00
37848;BME280;23688;33.130;-117.188;2024-02-26T07:50:08;99747.41;;;14.32;100.00
37848;BME280;23688;33.130;-117.188;2024-02-26T07:52:34;99756.09;;;14.32;100.00
37848;BME280;23688;33.130;-117.188;2024-02-26T07:55:01;99728.81;;;14.23;100.00
37848;BME280;23688;33.130;-117.188;2024-02-26T07:57:27;99731.66;;;14.30;100.00
37848;BME280;23688;33.130;-117.188;2024-02-26T07:59:53;99730.88;;;14.33;100.00
37848;BME280;23688;33.130;-117.188;2024-02-26T08:02:21;99729.06;;;14.30;100.00
37848;BME280;23688;33.130;-117.188;2024-02-26T08:04:47;99717.41;;;14.19;100.00
37848;BME280;23688;33.130;-117.188;2024-02-26T08:07:17;99737.50;;;14.22;100.00
37848;BME280;23688;33.130;-117.188;2024-02-26T08:09:43;99735.81;;;13.95;100.00
37848;BME280;23688;33.130;-117.188;2024-02-26T08:12:09;99760.50;;;14.06;100.00
37848;BME280;23688;33.130;-117.188;2024-02-26T08:14:35;99753.84;;;14.15;100.00
37848;BME280;23688;33.130;-117.188;2024-02-26T08:17:02;99752.25;;;14.20;100.00
37848;BME280;23688;33.130;-117.188;2024-02-26T08:19:28;99749.72;;;14.23;100.00
37848;BME280;23688;33.130;-117.188;2024-02-26T08:21:54;99737.53;;;14.23;100.00
37848;BME280;23688;33.130;-117.188;2024-02-26T08:24:21;99742.91;;;14.28;100.00
37848;BME280;23688;33.130;-117.188;2024-02-26T08:26:47;99740.44;;;14.32;100.00
37848;BME280;23688;33.130;-117.188;2024-02-26T08:29:13;99733.13;;;14.21;100.00
37848;BME280;23688;33.130;-117.188;2024-02-26T08:31:39;99749.06;;;14.30;100.00
37848;BME280;23688;33.130;-117.188;2024-02-26T08:34:06;99760.47;;;14.32;100.00
37848;BME280;23688;33.130;-117.188;2024-02-26T08:36:34;99741.88;;;14.23;100.00
37848;BME280;23688;33.130;-117.188;2024-02-26T08:39:00;99753.22;;;14.23;100.00
37848;BME280;23688;33.130;-117.188;2024-02-26T08:41:27;99760.72;;;14.12;100.00
37848;BME280;23688;33.130;-117.188;2024-02-26T08:43:53;99756.47;;;14.16;100.00
37848;BME280;23688;33.130;-117.188;2024-02-26T08:46:21;99748.75;;;14.19;100.00
37848;BME280;23688;33.130;-117.188;2024-02-26T08:48:48;99740.78;;;14.15;100.00
37848;BME280;23688;33.130;-117.188;2024-02-26T08:51:15;99752.97;;;14.16;100.00
37848;BME280;23688;33.130;-117.188;2024-02-26T08:53:41;99749.41;;;14.12;100.00
37848;BME280;23688;33.130;-117.188;2024-02-26T08:56:08;99747.06;;;13.94;100.00
37848;BME280;23688;33.130;-117.188;2024-02-26T08:58:34;99779.34;;;13.96;100.00
37848;BME280;23688;33.130;-117.188;2024-02-26T09:01:01;99789.84;;;13.98;100.00
37848;BME280;23688;33.130;-117.188;2024-02-26T09:03:28;99776.81;;;13.99;100.00
37848;BME280;23688;33.130;-117.188;2024-02-26T09:05:54;99770.81;;;14.02;100.00
37848;BME280;23688;33.130;-117.188;2024-02-26T09:08:22;99758.66;;;14.02;100.00
37848;BME280;23688;33.130;-117.188;2024-02-26T09:10:49;99766.63;;;14.07;100.00
37848;BME280;23688;33.130;-117.188;2024-02-26T09:13:16;99770.06;;;14.06;100.00
37848;BME280;23688;33.130;-117.188;2024-02-26T09:15:42;99759.56;;;14.04;100.00
37848;BME280;23688;33.130;-117.188;2024-02-26T09:18:08;99755.28;;;14.06;100.00
37848;BME280;23688;33.130;-117.188;2024-02-26T09:20:35;99736.63;;;13.94;100.00
37848;BME280;23688;33.130;-117.188;2024-02-26T09:23:02;99751.47;;;13.95;100.00
37848;BME280;23688;33.130;-117.188;2024-02-26T09:25:28;99741.84;;;13.94;100.00
37848;BME280;23688;33.130;-117.188;2024-02-26T09:27:54;99736.59;;;13.93;100.00
37848;BME280;23688;33.130;-117.188;2024-02-26T09:30:21;99741.03;;;13.95;100.00
37848;BME280;23688;33.130;-117.188;2024-02-26T09:32:47;99725.41;;;13.97;100.00
37848;BME280;23688;33.130;-117.188;2024-02-26T09:35:16;99728.06;;;13.98;100.00
37848;BME280;23688;33.130;-117.188;2024-02-26T09:37:43;99708.88;;;13.96;100.00
37848;BME280;23688;33.130;-117.188;2024-02-26T09:40:10;99722.22;;;14.05;100.00
37848;BME280;23688;33.130;-117.188;2024-02-26T09:42:38;99698.75;;;14.07;100.00
37848;BME280;23688;33.130;-117.188;2024-02-26T09:45:11;99703.88;;;14.04;100.00
37848;BME280;23688;33.130;-117.188;2024-02-26T09:47:39;99704.81;;;14.06;100.00
37848;BME280;23688;33.130;-117.188;2024-02-26T09:50:06;99688.03;;;13.98;100.00
37848;BME280;23688;33.130;-117.188;2024-02-26T09:52:37;99710.91;;;14.06;100.00
37848;BME280;23688;33.130;-117.188;2024-02-26T09:55:04;99701.97;;;13.98;100.00
37848;BME280;23688;33.130;-117.188;2024-02-26T09:57:31;99695.03;;;13.99;100.00
37848;BME280;23688;33.130;-117.188;2024-02-26T09:59:59;99681.16;;;14.00;100.00
37848;BME280;23688;33.130;-117.188;2024-02-26T10:02:31;99684.44;;;13.94;100.00
37848;BME280;23688;33.130;-117.188;2024-02-26T10:04:59;99685.38;;;13.96;100.00
37848;BME280;23688;33.130;-117.188;2024-02-26T10:07:27;99698.66;;;14.04;100.00
37848;BME280;23688;33.130;-117.188;2024-02-26T10:09:55;99683.00;;;14.04;100.00
37848;BME280;23688;33.130;-117.188;2024-02-26T10:12:22;99663.84;;;14.03;100.00
37848;BME280;23688;33.130;-117.188;2024-02-26T10:14:49;99651.59;;;14.01;100.00
37848;BME280;23688;33.130;-117.188;2024-02-26T10:17:15;99642.97;;;14.03;100.00
37848;BME280;23688;33.130;-117.188;2024-02-26T10:19:42;99632.44;;;14.02;100.00
37848;BME280;23688;33.130;-117.188;2024-02-26T10:22:08;99635.97;;;14.02;100.00
37848;BME280;23688;33.130;-117.188;2024-02-26T10:24:34;99636.78;;;14.01;100.00
37848;BME280;23688;33.130;-117.188;2024-02-26T10:27:02;99629.69;;;13.96;100.00
37848;BME280;23688;33.130;-117.188;2024-02-26T10:29:29;99620.13;;;13.96;100.00
37848;BME280;23688;33.130;-117.188;2024-02-26T10:31:56;99631.50;;;13.98;100.00
37848;BME280;23688;33.130;-117.188;2024-02-26T10:34:22;99642.16;;;14.06;100.00
37848;BME280;23688;33.130;-117.188;2024-02-26T10:36:49;99631.66;;;14.04;100.00
37848;BME280;23688;33.130;-117.188;2024-02-26T10:39:16;99633.25;;;13.99;100.00
37848;BME280;23688;33.130;-117.188;2024-02-26T10:41:44;99648.22;;;14.05;100.00
37848;BME280;23688;33.130;-117.188;2024-02-26T10:44:13;99638.59;;;14.02;100.00
37848;BME280;23688;33.130;-117.188;2024-02-26T10:46:43;99641.28;;;14.05;100.00
37848;BME280;23688;33.130;-117.188;2024-02-26T10:49:14;99642.22;;;14.07;100.00
37848;BME280;23688;33.130;-117.188;2024-02-26T10:51:44;99634.31;;;14.06;100.00
37848;BME280;23688;33.130;-117.188;2024-02-26T10:54:15;99635.03;;;14.00;100.00
37848;BME280;23688;33.130;-117.188;2024-02-26T10:56:42;99632.50;;;14.03;100.00
37848;BME280;23688;33.130;-117.188;2024-02-26T10:59:12;99629.84;;;14.02;100.00
37848;BME280;23688;33.130;-117.188;2024-02-26T11:01:39;99617.56;;;13.98;100.00
37848;BME280;23688;33.130;-117.188;2024-02-26T11:04:08;99623.81;;;14.03;100.00
37848;BME280;23688;33.130;-117.188;2024-02-26T11:06:36;99613.28;;;14.00;100.00
37848;BME280;23688;33.130;-117.188;2024-02-26T11:09:03;99617.59;;;13.99;100.00
37848;BME280;23688;33.130;-117.188;2024-02-26T11:11:32;99619.25;;;13.97;100.00
37848;BME280;23688;33.130;-117.188;2024-02-26T11:14:01;99626.88;;;13.89;100.00
37848;BME280;23688;33.130;-117.188;2024-02-26T11:16:30;99619.09;;;13.91;100.00
37848;BME280;23688;33.130;-117.188;2024-02-26T11:18:57;99625.13;;;13.88;100.00
37848;BME280;23688;33.130;-117.188;2024-02-26T11:21:26;99620.41;;;13.77;100.00
37848;BME280;23688;33.130;-117.188;2024-02-26T11:24:14;99630.13;;;13.82;100.00
37848;BME280;23688;33.130;-117.188;2024-02-26T11:26:53;99628.44;;;13.83;100.00
37848;BME280;23688;33.130;-117.188;2024-02-26T11:29:49;99607.41;;;13.78;100.00
37848;BME280;23688;33.130;-117.188;2024-02-26T11:32:19;99612.78;;;13.83;100.00
37848;BME280;23688;33.130;-117.188;2024-02-26T11:34:45;99624.75;;;13.76;100.00
37848;BME280;23688;33.130;-117.188;2024-02-26T11:37:13;99626.09;;;13.63;100.00
37848;BME280;23688;33.130;-117.188;2024-02-26T11:39:44;99640.44;;;13.49;100.00
37848;BME280;23688;33.130;-117.188;2024-02-26T11:42:14;99632.38;;;13.43;100.00
37848;BME280;23688;33.130;-117.188;2024-02-26T11:44:41;99621.72;;;13.35;100.00
37848;BME280;23688;33.130;-117.188;2024-02-26T11:47:18;99617.06;;;13.26;100.00
37848;BME280;23688;33.130;-117.188;2024-02-26T11:49:45;99638.25;;;13.36;100.00
37848;BME280;23688;33.130;-117.188;2024-02-26T11:52:13;99633.00;;;13.34;100.00
37848;BME280;23688;33.130;-117.188;2024-02-26T11:54:52;99628.50;;;13.30;100.00
37848;BME280;23688;33.130;-117.188;2024-02-26T12:00:02;99648.00;;;13.41;100.00
37848;BME280;23688;33.130;-117.188;2024-02-26T12:02:46;99651.13;;;13.31;100.00
37848;BME280;23688;33.130;-117.188;2024-02-26T12:05:15;99644.22;;;13.32;100.00
37848;BME280;23688;33.130;-117.188;2024-02-26T12:08:04;99667.88;;;13.38;100.00
37848;BME280;23688;33.130;-117.188;2024-02-26T12:10:32;99682.63;;;13.37;100.00
37848;BME280;23688;33.130;-117.188;2024-02-26T12:13:15;99688.72;;;13.38;100.00
37848;BME280;23688;33.130;-117.188;2024-02-26T12:15:44;99687.91;;;13.39;100.00
37848;BME280;23688;33.130;-117.188;2024-02-26T12:18:16;99686.19;;;13.39;100.00
37848;BME280;23688;33.130;-117.188;2024-02-26T12:20:43;99697.59;;;13.43;100.00
37848;BME280;23688;33.130;-117.188;2024-02-26T12:23:16;99679.72;;;13.28;100.00
37848;BME280;23688;33.130;-117.188;2024-02-26T12:25:45;99637.78;;;13.22;100.00